sensor_id;sensor_type;location;lat;lon;timestamp;P1;durP1;ratioP1;P2;durP2;ratioP2
12886;SDS011;6511;49.746;6.094;2022-07-23T00:01:23;16.98;;;14.27;;
12886;SDS011;6511;49.746;6.094;2022-07-23T00:03:49;15.73;;;13.50;;
12886;SDS011;6511;49.746;6.094;2022-07-23T00:06:17;15.82;;;13.98;;
12886;SDS011;6511;49.746;6.094;2022-07-23T00:08:43;16.45;;;13.60;;
12886;SDS011;6511;49.746;6.094;2022-07-23T00:11:08;15.90;;;14.27;;
12886;SDS011;6511;49.746;6.094;2022-07-23T00:13:35;15.38;;;13.60;;
12886;SDS011;6511;49.746;6.094;2022-07-23T00:16:01;16.50;;;13.75;;
12886;SDS011;6511;49.746;6.094;2022-07-23T00:18:27;16.30;;;14.48;;
12886;SDS011;6511;49.746;6.094;2022-07-23T00:20:52;15.18;;;13.52;;
12886;SDS011;6511;49.746;6.094;2022-07-23T00:23:18;16.80;;;13.98;;
12886;SDS011;6511;49.746;6.094;2022-07-23T00:25:44;16.35;;;13.63;;
12886;SDS011;6511;49.746;6.094;2022-07-23T00:28:10;21.13;;;14.63;;
12886;SDS011;6511;49.746;6.094;2022-07-23T00:30:36;15.60;;;13.95;;
12886;SDS011;6511;49.746;6.094;2022-07-23T00:33:04;16.83;;;14.18;;
12886;SDS011;6511;49.746;6.094;2022-07-23T00:35:32;17.88;;;15.13;;
12886;SDS011;6511;49.746;6.094;2022-07-23T00:38:00;18.30;;;15.20;;
12886;SDS011;6511;49.746;6.094;2022-07-23T00:40:27;16.10;;;14.27;;
12886;SDS011;6511;49.746;6.094;2022-07-23T00:42:54;19.30;;;15.30;;
12886;SDS011;6511;49.746;6.094;2022-07-23T00:45:20;19.10;;;16.13;;
12886;SDS011;6511;49.746;6.094;2022-07-23T00:47:48;19.95;;;16.45;;
12886;SDS011;6511;49.746;6.094;2022-07-23T00:50:14;20.27;;;16.58;;
12886;SDS011;6511;49.746;6.094;2022-07-23T00:52:40;18.15;;;16.08;;
12886;SDS011;6511;49.746;6.094;2022-07-23T00:55:06;17.65;;;15.80;;
12886;SDS011;6511;49.746;6.094;2022-07-23T00:57:33;18.15;;;14.75;;
12886;SDS011;6511;49.746;6.094;2022-07-23T01:00:00;17.50;;;15.07;;
12886;SDS011;6511;49.746;6.094;2022-07-23T01:02:26;19.00;;;16.10;;
12886;SDS011;6511;49.746;6.094;2022-07-23T01:04:52;18.20;;;15.60;;
12886;SDS011;6511;49.746;6.094;2022-07-23T01:07:18;17.83;;;14.73;;
12886;SDS011;6511;49.746;6.094;2022-07-23T01:09:45;19.50;;;16.17;;
12886;SDS011;6511;49.746;6.094;2022-07-23T01:12:11;19.20;;;16.40;;
12886;SDS011;6511;49.746;6.094;2022-07-23T01:14:37;21.25;;;15.93;;
12886;SDS011;6511;49.746;6.094;2022-07-23T01:17:03;22.20;;;17.38;;
12886;SDS011;6511;49.746;6.094;2022-07-23T01:19:29;21.20;;;17.27;;
12886;SDS011;6511;49.746;6.094;2022-07-23T01:21:55;21.45;;;17.20;;
12886;SDS011;6511;49.746;6.094;2022-07-23T01:24:23;18.80;;;16.70;;
12886;SDS011;6511;49.746;6.094;2022-07-23T01:26:49;17.92;;;16.02;;
12886;SDS011;6511;49.746;6.094;2022-07-23T01:29:16;19.92;;;16.42;;
12886;SDS011;6511;49.746;6.094;2022-07-23T01:31:42;22.83;;;17.58;;
12886;SDS011;6511;49.746;6.094;2022-07-23T01:34:08;20.95;;;17.63;;
12886;SDS011;6511;49.746;6.094;2022-07-23T01:36:34;21.83;;;17.27;;
12886;SDS011;6511;49.746;6.094;2022-07-23T01:39:01;19.35;;;16.85;;
12886;SDS011;6511;49.746;6.094;2022-07-23T01:41:28;22.23;;;18.02;;
12886;SDS011;6511;49.746;6.094;2022-07-23T01:43:54;22.17;;;18.10;;
12886;SDS011;6511;49.746;6.094;2022-07-23T01:46:20;23.85;;;18.98;;
12886;SDS011;6511;49.746;6.094;2022-07-23T01:48:45;24.77;;;19.77;;
12886;SDS011;6511;49.746;6.094;2022-07-23T01:51:11;26.38;;;20.80;;
12886;SDS011;6511;49.746;6.094;2022-07-23T01:53:37;24.70;;;19.88;;
12886;SDS011;6511;49.746;6.094;2022-07-23T01:56:02;27.80;;;21.42;;
12886;SDS011;6511;49.746;6.094;2022-07-23T01:58:29;26.63;;;20.83;;
12886;SDS011;6511;49.746;6.094;2022-07-23T02:00:55;25.00;;;20.20;;
12886;SDS011;6511;49.746;6.094;2022-07-23T02:03:20;26.83;;;19.73;;
12886;SDS011;6511;49.746;6.094;2022-07-23T02:05:46;31.40;;;21.08;;
12886;SDS011;6511;49.746;6.094;2022-07-23T02:08:12;30.80;;;21.95;;
12886;SDS011;6511;49.746;6.094;2022-07-23T02:10:38;31.02;;;22.67;;
12886;SDS011;6511;49.746;6.094;2022-07-23T02:13:04;29.95;;;21.70;;
12886;SDS011;6511;49.746;6.094;2022-07-23T02:15:30;29.55;;;21.98;;
12886;SDS011;6511;49.746;6.094;2022-07-23T02:17:55;31.88;;;23.10;;
12886;SDS011;6511;49.746;6.094;2022-07-23T02:20:21;30.98;;;23.38;;
12886;SDS011;6511;49.746;6.094;2022-07-23T02:22:47;32.33;;;23.92;;
12886;SDS011;6511;49.746;6.094;2022-07-23T02:25:13;32.67;;;23.67;;
12886;SDS011;6511;49.746;6.094;2022-07-23T02:27:39;31.65;;;22.63;;
12886;SDS011;6511;49.746;6.094;2022-07-23T02:30:05;27.63;;;21.35;;
12886;SDS011;6511;49.746;6.094;2022-07-23T02:32:32;27.95;;;20.77;;
12886;SDS011;6511;49.746;6.094;2022-07-23T02:34:58;31.35;;;22.98;;
12886;SDS011;6511;49.746;6.094;2022-07-23T02:37:23;31.45;;;22.52;;
12886;SDS011;6511;49.746;6.094;2022-07-23T02:39:49;29.67;;;22.75;;
12886;SDS011;6511;49.746;6.094;2022-07-23T02:42:15;34.22;;;24.27;;
12886;SDS011;6511;49.746;6.094;2022-07-23T02:44:41;39.42;;;24.55;;
12886;SDS011;6511;49.746;6.094;2022-07-23T02:47:06;33.25;;;24.70;;
12886;SDS011;6511;49.746;6.094;2022-07-23T02:49:32;38.50;;;26.67;;
12886;SDS011;6511;49.746;6.094;2022-07-23T02:51:58;38.17;;;26.30;;
12886;SDS011;6511;49.746;6.094;2022-07-23T02:54:24;39.60;;;26.45;;
12886;SDS011;6511;49.746;6.094;2022-07-23T02:56:51;39.88;;;26.35;;
12886;SDS011;6511;49.746;6.094;2022-07-23T02:59:17;40.05;;;25.98;;
12886;SDS011;6511;49.746;6.094;2022-07-23T03:01:43;40.72;;;27.35;;
12886;SDS011;6511;49.746;6.094;2022-07-23T03:04:09;42.55;;;27.90;;
12886;SDS011;6511;49.746;6.094;2022-07-23T03:06:35;42.72;;;28.70;;
12886;SDS011;6511;49.746;6.094;2022-07-23T03:09:00;43.17;;;28.05;;
12886;SDS011;6511;49.746;6.094;2022-07-23T03:11:27;48.08;;;27.42;;
12886;SDS011;6511;49.746;6.094;2022-07-23T03:13:52;43.20;;;28.05;;
12886;SDS011;6511;49.746;6.094;2022-07-23T03:16:18;41.47;;;28.65;;
12886;SDS011;6511;49.746;6.094;2022-07-23T03:18:44;45.05;;;29.10;;
12886;SDS011;6511;49.746;6.094;2022-07-23T03:21:09;46.35;;;29.48;;
12886;SDS011;6511;49.746;6.094;2022-07-23T03:23:35;47.65;;;30.67;;
12886;SDS011;6511;49.746;6.094;2022-07-23T03:26:00;52.88;;;32.95;;
12886;SDS011;6511;49.746;6.094;2022-07-23T03:28:26;50.53;;;31.63;;
12886;SDS011;6511;49.746;6.094;2022-07-23T03:30:52;48.60;;;31.60;;
12886;SDS011;6511;49.746;6.094;2022-07-23T03:33:18;56.83;;;33.60;;
12886;SDS011;6511;49.746;6.094;2022-07-23T03:35:45;55.05;;;33.30;;
12886;SDS011;6511;49.746;6.094;2022-07-23T03:38:12;58.42;;;35.55;;
12886;SDS011;6511;49.746;6.094;2022-07-23T03:40:38;54.15;;;34.83;;
12886;SDS011;6511;49.746;6.094;2022-07-23T03:43:03;61.13;;;36.17;;
12886;SDS011;6511;49.746;6.094;2022-07-23T03:45:29;53.00;;;34.22;;
12886;SDS011;6511;49.746;6.094;2022-07-23T03:47:56;54.08;;;33.50;;
12886;SDS011;6511;49.746;6.094;2022-07-23T03:50:22;51.55;;;32.15;;
12886;SDS011;6511;49.746;6.094;2022-07-23T03:52:48;47.35;;;31.73;;
12886;SDS011;6511;49.746;6.094;2022-07-23T03:55:14;52.63;;;32.80;;
12886;SDS011;6511;49.746;6.094;2022-07-23T03:57:40;56.85;;;33.20;;
12886;SDS011;6511;49.746;6.094;2022-07-23T04:00:06;49.10;;;32.42;;
12886;SDS011;6511;49.746;6.094;2022-07-23T04:02:34;52.95;;;32.80;;
12886;SDS011;6511;49.746;6.094;2022-07-23T04:05:04;49.15;;;31.20;;
12886;SDS011;6511;49.746;6.094;2022-07-23T04:07:30;52.58;;;32.63;;
12886;SDS011;6511;49.746;6.094;2022-07-23T04:09:56;49.22;;;31.25;;
12886;SDS011;6511;49.746;6.094;2022-07-23T04:12:22;46.60;;;29.58;;
12886;SDS011;6511;49.746;6.094;2022-07-23T04:14:48;46.80;;;30.10;;
12886;SDS011;6511;49.746;6.094;2022-07-23T04:17:14;45.50;;;29.08;;
12886;SDS011;6511;49.746;6.094;2022-07-23T04:19:40;47.55;;;30.90;;
12886;SDS011;6511;49.746;6.094;2022-07-23T04:22:10;47.60;;;29.88;;
12886;SDS011;6511;49.746;6.094;2022-07-23T04:24:36;48.28;;;30.85;;
12886;SDS011;6511;49.746;6.094;2022-07-23T04:27:02;56.35;;;33.33;;
12886;SDS011;6511;49.746;6.094;2022-07-23T04:29:28;50.95;;;32.80;;
12886;SDS011;6511;49.746;6.094;2022-07-23T04:31:54;52.03;;;32.67;;
12886;SDS011;6511;49.746;6.094;2022-07-23T04:34:20;47.35;;;31.75;;
12886;SDS011;6511;49.746;6.094;2022-07-23T04:36:45;51.55;;;31.58;;
12886;SDS011;6511;49.746;6.094;2022-07-23T04:39:11;48.47;;;31.05;;
12886;SDS011;6511;49.746;6.094;2022-07-23T04:41:37;45.95;;;30.30;;
12886;SDS011;6511;49.746;6.094;2022-07-23T04:44:03;44.40;;;29.17;;
12886;SDS011;6511;49.746;6.094;2022-07-23T04:46:29;42.30;;;27.98;;
12886;SDS011;6511;49.746;6.094;2022-07-23T04:48:54;42.78;;;28.55;;
12886;SDS011;6511;49.746;6.094;2022-07-23T04:51:20;46.90;;;29.35;;
12886;SDS011;6511;49.746;6.094;2022-07-23T04:53:46;44.35;;;28.85;;
12886;SDS011;6511;49.746;6.094;2022-07-23T04:56:12;41.72;;;27.58;;
12886;SDS011;6511;49.746;6.094;2022-07-23T04:58:37;44.30;;;28.27;;
12886;SDS011;6511;49.746;6.094;2022-07-23T05:01:03;43.10;;;28.38;;
12886;SDS011;6511;49.746;6.094;2022-07-23T05:03:29;39.10;;;28.35;;
12886;SDS011;6511;49.746;6.094;2022-07-23T05:05:55;38.35;;;27.58;;
12886;SDS011;6511;49.746;6.094;2022-07-23T05:08:20;43.95;;;29.33;;
12886;SDS011;6511;49.746;6.094;2022-07-23T05:10:46;45.83;;;30.25;;
12886;SDS011;6511;49.746;6.094;2022-07-23T05:13:13;42.28;;;29.27;;
12886;SDS011;6511;49.746;6.094;2022-07-23T05:15:40;43.03;;;29.00;;
12886;SDS011;6511;49.746;6.094;2022-07-23T05:18:06;42.17;;;27.75;;
12886;SDS011;6511;49.746;6.094;2022-07-23T05:20:31;38.45;;;27.35;;
12886;SDS011;6511;49.746;6.094;2022-07-23T05:22:57;38.50;;;27.05;;
12886;SDS011;6511;49.746;6.094;2022-07-23T05:25:23;38.47;;;26.13;;
12886;SDS011;6511;49.746;6.094;2022-07-23T05:27:48;36.10;;;26.27;;
12886;SDS011;6511;49.746;6.094;2022-07-23T05:30:14;39.00;;;27.00;;
12886;SDS011;6511;49.746;6.094;2022-07-23T05:32:40;37.92;;;26.13;;
12886;SDS011;6511;49.746;6.094;2022-07-23T05:35:06;35.88;;;26.55;;
12886;SDS011;6511;49.746;6.094;2022-07-23T05:37:32;40.58;;;27.55;;
12886;SDS011;6511;49.746;6.094;2022-07-23T05:40:02;36.83;;;25.70;;
12886;SDS011;6511;49.746;6.094;2022-07-23T05:42:28;38.05;;;25.10;;
12886;SDS011;6511;49.746;6.094;2022-07-23T05:44:54;37.78;;;26.38;;
12886;SDS011;6511;49.746;6.094;2022-07-23T05:47:20;35.53;;;24.90;;
12886;SDS011;6511;49.746;6.094;2022-07-23T05:49:45;34.95;;;24.73;;
12886;SDS011;6511;49.746;6.094;2022-07-23T05:52:14;41.33;;;26.63;;
12886;SDS011;6511;49.746;6.094;2022-07-23T05:54:40;38.95;;;25.98;;
12886;SDS011;6511;49.746;6.094;2022-07-23T05:57:05;34.92;;;24.92;;
12886;SDS011;6511;49.746;6.094;2022-07-23T05:59:31;34.05;;;25.98;;
12886;SDS011;6511;49.746;6.094;2022-07-23T06:01:57;34.33;;;24.42;;
12886;SDS011;6511;49.746;6.094;2022-07-23T06:04:22;34.05;;;23.90;;
12886;SDS011;6511;49.746;6.094;2022-07-23T06:06:48;33.83;;;24.50;;
12886;SDS011;6511;49.746;6.094;2022-07-23T06:09:14;34.55;;;24.40;;
12886;SDS011;6511;49.746;6.094;2022-07-23T06:11:40;32.10;;;24.98;;
12886;SDS011;6511;49.746;6.094;2022-07-23T06:14:05;35.20;;;25.38;;
12886;SDS011;6511;49.746;6.094;2022-07-23T06:16:31;35.40;;;24.73;;
12886;SDS011;6511;49.746;6.094;2022-07-23T06:18:57;36.05;;;25.35;;
12886;SDS011;6511;49.746;6.094;2022-07-23T06:21:22;36.03;;;24.70;;
12886;SDS011;6511;49.746;6.094;2022-07-23T06:23:48;34.72;;;24.52;;
12886;SDS011;6511;49.746;6.094;2022-07-23T06:26:14;33.85;;;25.05;;
12886;SDS011;6511;49.746;6.094;2022-07-23T06:28:40;31.58;;;23.55;;
12886;SDS011;6511;49.746;6.094;2022-07-23T06:31:05;33.05;;;23.83;;
12886;SDS011;6511;49.746;6.094;2022-07-23T06:33:31;32.90;;;23.92;;
12886;SDS011;6511;49.746;6.094;2022-07-23T06:35:58;31.27;;;23.73;;
12886;SDS011;6511;49.746;6.094;2022-07-23T06:38:24;32.10;;;23.52;;
12886;SDS011;6511;49.746;6.094;2022-07-23T06:40:49;34.50;;;22.88;;
12886;SDS011;6511;49.746;6.094;2022-07-23T06:43:15;32.30;;;22.15;;
12886;SDS011;6511;49.746;6.094;2022-07-23T06:45:41;29.75;;;21.77;;
12886;SDS011;6511;49.746;6.094;2022-07-23T06:48:06;29.40;;;21.20;;
12886;SDS011;6511;49.746;6.094;2022-07-23T06:50:32;30.50;;;21.92;;
12886;SDS011;6511;49.746;6.094;2022-07-23T06:52:58;31.05;;;22.02;;
12886;SDS011;6511;49.746;6.094;2022-07-23T06:55:23;29.05;;;22.10;;
12886;SDS011;6511;49.746;6.094;2022-07-23T06:57:49;31.08;;;22.35;;
12886;SDS011;6511;49.746;6.094;2022-07-23T07:00:15;31.40;;;21.38;;
12886;SDS011;6511;49.746;6.094;2022-07-23T07:02:40;30.05;;;21.80;;
12886;SDS011;6511;49.746;6.094;2022-07-23T07:05:07;28.60;;;21.90;;
12886;SDS011;6511;49.746;6.094;2022-07-23T07:07:34;30.20;;;21.17;;
12886;SDS011;6511;49.746;6.094;2022-07-23T07:10:00;32.08;;;21.33;;
12886;SDS011;6511;49.746;6.094;2022-07-23T07:12:27;29.30;;;21.00;;
12886;SDS011;6511;49.746;6.094;2022-07-23T07:14:53;32.13;;;21.30;;
12886;SDS011;6511;49.746;6.094;2022-07-23T07:17:18;26.23;;;20.23;;
12886;SDS011;6511;49.746;6.094;2022-07-23T07:19:44;28.67;;;20.45;;
12886;SDS011;6511;49.746;6.094;2022-07-23T07:22:10;28.27;;;20.58;;
12886;SDS011;6511;49.746;6.094;2022-07-23T07:24:35;27.05;;;20.20;;
12886;SDS011;6511;49.746;6.094;2022-07-23T07:27:01;32.25;;;21.50;;
12886;SDS011;6511;49.746;6.094;2022-07-23T07:29:27;29.00;;;20.05;;
12886;SDS011;6511;49.746;6.094;2022-07-23T07:31:53;28.17;;;19.63;;
12886;SDS011;6511;49.746;6.094;2022-07-23T07:34:19;26.88;;;20.35;;
12886;SDS011;6511;49.746;6.094;2022-07-23T07:36:45;27.95;;;21.00;;
12886;SDS011;6511;49.746;6.094;2022-07-23T07:39:10;26.48;;;20.58;;
12886;SDS011;6511;49.746;6.094;2022-07-23T07:41:36;26.05;;;18.67;;
12886;SDS011;6511;49.746;6.094;2022-07-23T07:44:02;27.45;;;19.05;;
12886;SDS011;6511;49.746;6.094;2022-07-23T07:46:27;30.10;;;20.00;;
12886;SDS011;6511;49.746;6.094;2022-07-23T07:48:53;27.65;;;19.40;;
12886;SDS011;6511;49.746;6.094;2022-07-23T07:51:19;26.95;;;19.85;;
12886;SDS011;6511;49.746;6.094;2022-07-23T07:53:45;26.92;;;19.15;;
12886;SDS011;6511;49.746;6.094;2022-07-23T07:56:10;25.92;;;19.60;;
12886;SDS011;6511;49.746;6.094;2022-07-23T07:58:36;26.23;;;17.58;;
12886;SDS011;6511;49.746;6.094;2022-07-23T08:01:02;25.20;;;18.85;;
12886;SDS011;6511;49.746;6.094;2022-07-23T08:03:28;22.92;;;17.95;;
12886;SDS011;6511;49.746;6.094;2022-07-23T08:05:55;24.15;;;17.73;;
12886;SDS011;6511;49.746;6.094;2022-07-23T08:08:21;25.27;;;17.40;;
12886;SDS011;6511;49.746;6.094;2022-07-23T08:10:46;22.58;;;17.33;;
12886;SDS011;6511;49.746;6.094;2022-07-23T08:13:13;23.33;;;17.05;;
12886;SDS011;6511;49.746;6.094;2022-07-23T08:15:40;21.65;;;16.25;;
12886;SDS011;6511;49.746;6.094;2022-07-23T08:18:06;21.90;;;16.35;;
12886;SDS011;6511;49.746;6.094;2022-07-23T08:20:31;20.10;;;16.33;;
12886;SDS011;6511;49.746;6.094;2022-07-23T08:22:58;23.58;;;16.85;;
12886;SDS011;6511;49.746;6.094;2022-07-23T08:25:28;20.42;;;16.25;;
12886;SDS011;6511;49.746;6.094;2022-07-23T08:27:56;19.05;;;15.60;;
12886;SDS011;6511;49.746;6.094;2022-07-23T08:30:22;19.45;;;15.18;;
12886;SDS011;6511;49.746;6.094;2022-07-23T08:32:53;20.05;;;15.25;;
12886;SDS011;6511;49.746;6.094;2022-07-23T08:35:27;18.63;;;14.88;;
12886;SDS011;6511;49.746;6.094;2022-07-23T08:37:58;18.02;;;15.07;;
12886;SDS011;6511;49.746;6.094;2022-07-23T08:40:29;20.17;;;14.73;;
12886;SDS011;6511;49.746;6.094;2022-07-23T08:42:56;16.10;;;13.70;;
12886;SDS011;6511;49.746;6.094;2022-07-23T08:45:23;14.63;;;13.02;;
12886;SDS011;6511;49.746;6.094;2022-07-23T08:47:50;15.68;;;11.90;;
12886;SDS011;6511;49.746;6.094;2022-07-23T08:50:21;14.18;;;12.00;;
12886;SDS011;6511;49.746;6.094;2022-07-23T08:52:48;15.93;;;12.55;;
12886;SDS011;6511;49.746;6.094;2022-07-23T08:55:19;13.80;;;10.80;;
12886;SDS011;6511;49.746;6.094;2022-07-23T08:57:47;14.75;;;11.63;;
12886;SDS011;6511;49.746;6.094;2022-07-23T09:00:23;18.00;;;12.77;;
12886;SDS011;6511;49.746;6.094;2022-07-23T09:02:49;16.75;;;12.50;;
12886;SDS011;6511;49.746;6.094;2022-07-23T09:05:16;15.57;;;12.02;;
12886;SDS011;6511;49.746;6.094;2022-07-23T09:10:46;16.92;;;13.35;;
12886;SDS011;6511;49.746;6.094;2022-07-23T09:13:25;17.20;;;13.10;;
12886;SDS011;6511;49.746;6.094;2022-07-23T09:16:14;13.75;;;12.15;;
12886;SDS011;6511;49.746;6.094;2022-07-23T09:18:45;14.20;;;11.65;;
12886;SDS011;6511;49.746;6.094;2022-07-23T09:21:18;14.55;;;11.23;;
12886;SDS011;6511;49.746;6.094;2022-07-23T09:26:25;14.80;;;12.35;;
12886;SDS011;6511;49.746;6.094;2022-07-23T09:29:08;17.27;;;11.60;;
12886;SDS011;6511;49.746;6.094;2022-07-23T09:34:25;14.57;;;11.85;;
12886;SDS011;6511;49.746;6.094;2022-07-23T09:36:56;14.77;;;11.80;;
12886;SDS011;6511;49.746;6.094;2022-07-23T09:39:33;14.93;;;11.63;;
12886;SDS011;6511;49.746;6.094;2022-07-23T09:44:40;15.35;;;12.32;;
12886;SDS011;6511;49.746;6.094;2022-07-23T09:47:07;15.07;;;12.05;;
12886;SDS011;6511;49.746;6.094;2022-07-23T09:49:33;18.17;;;12.45;;
12886;SDS011;6511;49.746;6.094;2022-07-23T09:52:01;14.30;;;12.30;;
12886;SDS011;6511;49.746;6.094;2022-07-23T09:54:35;15.43;;;12.90;;
12886;SDS011;6511;49.746;6.094;2022-07-23T09:57:10;14.98;;;11.52;;
12886;SDS011;6511;49.746;6.094;2022-07-23T09:59:40;16.10;;;12.65;;
12886;SDS011;6511;49.746;6.094;2022-07-23T10:02:08;15.10;;;11.80;;
12886;SDS011;6511;49.746;6.094;2022-07-23T10:04:35;14.52;;;11.25;;
12886;SDS011;6511;49.746;6.094;2022-07-23T10:07:02;14.98;;;11.48;;
12886;SDS011;6511;49.746;6.094;2022-07-23T10:09:30;19.58;;;12.68;;
12886;SDS011;6511;49.746;6.094;2022-07-23T10:12:02;13.25;;;11.60;;
12886;SDS011;6511;49.746;6.094;2022-07-23T10:14:47;14.23;;;11.15;;
12886;SDS011;6511;49.746;6.094;2022-07-23T10:17:13;68.40;;;61.08;;
12886;SDS011;6511;49.746;6.094;2022-07-23T10:19:40;18.70;;;16.67;;
12886;SDS011;6511;49.746;6.094;2022-07-23T10:22:07;15.98;;;12.55;;
12886;SDS011;6511;49.746;6.094;2022-07-23T10:39:24;13.32;;;10.93;;
12886;SDS011;6511;49.746;6.094;2022-07-23T10:42:07;12.80;;;11.27;;
12886;SDS011;6511;49.746;6.094;2022-07-23T10:44:38;11.02;;;9.93;;
12886;SDS011;6511;49.746;6.094;2022-07-23T10:47:05;10.98;;;9.88;;
12886;SDS011;6511;49.746;6.094;2022-07-23T10:49:40;11.60;;;10.05;;
12886;SDS011;6511;49.746;6.094;2022-07-23T10:57:28;11.93;;;10.57;;
12886;SDS011;6511;49.746;6.094;2022-07-23T11:02:36;11.55;;;10.35;;
12886;SDS011;6511;49.746;6.094;2022-07-23T11:05:06;11.40;;;9.95;;
12886;SDS011;6511;49.746;6.094;2022-07-23T11:07:39;12.40;;;10.00;;
12886;SDS011;6511;49.746;6.094;2022-07-23T11:10:35;11.50;;;10.18;;
12886;SDS011;6511;49.746;6.094;2022-07-23T11:34:47;13.65;;;9.80;;
12886;SDS011;6511;49.746;6.094;2022-07-23T11:40:18;19.75;;;17.08;;
12886;SDS011;6511;49.746;6.094;2022-07-23T11:42:51;14.55;;;12.93;;
12886;SDS011;6511;49.746;6.094;2022-07-23T11:45:20;12.57;;;10.43;;
12886;SDS011;6511;49.746;6.094;2022-07-23T11:47:46;12.10;;;9.65;;
12886;SDS011;6511;49.746;6.094;2022-07-23T11:50:12;10.45;;;9.27;;
12886;SDS011;6511;49.746;6.094;2022-07-23T11:52:38;12.18;;;9.48;;
12886;SDS011;6511;49.746;6.094;2022-07-23T11:55:05;11.70;;;10.45;;
12886;SDS011;6511;49.746;6.094;2022-07-23T11:57:34;11.60;;;10.40;;
12886;SDS011;6511;49.746;6.094;2022-07-23T12:00:05;10.88;;;9.77;;
12886;SDS011;6511;49.746;6.094;2022-07-23T12:02:37;13.05;;;10.05;;
12886;SDS011;6511;49.746;6.094;2022-07-23T12:05:07;11.05;;;9.82;;
12886;SDS011;6511;49.746;6.094;2022-07-23T12:07:37;10.15;;;9.20;;
12886;SDS011;6511;49.746;6.094;2022-07-23T12:10:12;11.35;;;10.23;;
12886;SDS011;6511;49.746;6.094;2022-07-23T12:12:43;19.63;;;17.80;;
12886;SDS011;6511;49.746;6.094;2022-07-23T12:15:12;11.10;;;9.95;;
12886;SDS011;6511;49.746;6.094;2022-07-23T12:17:39;11.18;;;9.63;;
12886;SDS011;6511;49.746;6.094;2022-07-23T12:20:08;10.32;;;9.27;;
12886;SDS011;6511;49.746;6.094;2022-07-23T12:22:47;11.40;;;10.23;;
12886;SDS011;6511;49.746;6.094;2022-07-23T12:25:16;10.10;;;9.05;;
12886;SDS011;6511;49.746;6.094;2022-07-23T12:27:43;10.02;;;9.05;;
12886;SDS011;6511;49.746;6.094;2022-07-23T12:30:26;10.38;;;9.13;;
12886;SDS011;6511;49.746;6.094;2022-07-23T12:32:57;11.00;;;9.90;;
12886;SDS011;6511;49.746;6.094;2022-07-23T12:35:29;18.13;;;16.33;;
12886;SDS011;6511;49.746;6.094;2022-07-23T12:37:59;21.58;;;19.45;;
12886;SDS011;6511;49.746;6.094;2022-07-23T12:43:05;11.32;;;10.02;;
12886;SDS011;6511;49.746;6.094;2022-07-23T12:45:43;10.90;;;9.80;;
12886;SDS011;6511;49.746;6.094;2022-07-23T12:48:23;11.35;;;10.00;;
12886;SDS011;6511;49.746;6.094;2022-07-23T12:53:24;12.10;;;9.45;;
12886;SDS011;6511;49.746;6.094;2022-07-23T12:56:03;12.93;;;11.63;;
12886;SDS011;6511;49.746;6.094;2022-07-23T12:59:30;10.98;;;9.95;;
12886;SDS011;6511;49.746;6.094;2022-07-23T13:01:29;10.25;;;9.25;;
12886;SDS011;6511;49.746;6.094;2022-07-23T13:04:12;10.07;;;9.15;;
12886;SDS011;6511;49.746;6.094;2022-07-23T13:06:44;10.02;;;9.02;;
12886;SDS011;6511;49.746;6.094;2022-07-23T13:09:12;11.07;;;9.98;;
12886;SDS011;6511;49.746;6.094;2022-07-23T13:11:39;11.50;;;9.73;;
12886;SDS011;6511;49.746;6.094;2022-07-23T13:14:06;10.90;;;9.70;;
12886;SDS011;6511;49.746;6.094;2022-07-23T13:16:32;10.98;;;9.88;;
12886;SDS011;6511;49.746;6.094;2022-07-23T13:18:59;10.73;;;9.68;;
12886;SDS011;6511;49.746;6.094;2022-07-23T13:21:26;11.50;;;10.40;;
12886;SDS011;6511;49.746;6.094;2022-07-23T13:23:55;12.25;;;10.98;;
12886;SDS011;6511;49.746;6.094;2022-07-23T13:26:21;12.20;;;10.93;;
12886;SDS011;6511;49.746;6.094;2022-07-23T13:28:47;15.85;;;14.15;;
12886;SDS011;6511;49.746;6.094;2022-07-23T13:31:15;15.98;;;14.45;;
12886;SDS011;6511;49.746;6.094;2022-07-23T13:33:41;11.80;;;10.60;;
12886;SDS011;6511;49.746;6.094;2022-07-23T13:36:07;12.73;;;11.18;;
12886;SDS011;6511;49.746;6.094;2022-07-23T13:38:33;12.73;;;11.07;;
12886;SDS011;6511;49.746;6.094;2022-07-23T13:40:59;13.32;;;10.73;;
12886;SDS011;6511;49.746;6.094;2022-07-23T13:43:25;11.75;;;10.65;;
12886;SDS011;6511;49.746;6.094;2022-07-23T13:51:07;11.40;;;10.30;;
12886;SDS011;6511;49.746;6.094;2022-07-23T13:53:33;10.82;;;9.70;;
12886;SDS011;6511;49.746;6.094;2022-07-23T13:55:59;10.88;;;9.88;;
12886;SDS011;6511;49.746;6.094;2022-07-23T13:58:28;11.13;;;10.02;;
12886;SDS011;6511;49.746;6.094;2022-07-23T14:00:54;12.02;;;10.07;;
12886;SDS011;6511;49.746;6.094;2022-07-23T14:03:21;11.38;;;10.10;;
12886;SDS011;6511;49.746;6.094;2022-07-23T14:05:50;10.95;;;9.95;;
12886;SDS011;6511;49.746;6.094;2022-07-23T14:08:17;11.82;;;10.43;;
12886;SDS011;6511;49.746;6.094;2022-07-23T14:10:43;11.23;;;10.10;;
12886;SDS011;6511;49.746;6.094;2022-07-23T14:13:09;13.50;;;10.48;;
12886;SDS011;6511;49.746;6.094;2022-07-23T14:15:34;11.00;;;9.90;;
12886;SDS011;6511;49.746;6.094;2022-07-23T14:18:02;9.73;;;8.80;;
12886;SDS011;6511;49.746;6.094;2022-07-23T14:20:27;10.30;;;9.23;;
12886;SDS011;6511;49.746;6.094;2022-07-23T14:22:53;12.88;;;9.75;;
12886;SDS011;6511;49.746;6.094;2022-07-23T14:25:20;9.77;;;8.85;;
12886;SDS011;6511;49.746;6.094;2022-07-23T14:27:46;9.55;;;8.45;;
12886;SDS011;6511;49.746;6.094;2022-07-23T14:30:15;8.88;;;7.97;;
12886;SDS011;6511;49.746;6.094;2022-07-23T14:32:41;8.65;;;7.47;;
12886;SDS011;6511;49.746;6.094;2022-07-23T14:35:07;9.93;;;8.93;;
12886;SDS011;6511;49.746;6.094;2022-07-23T14:37:38;10.23;;;8.20;;
12886;SDS011;6511;49.746;6.094;2022-07-23T14:40:05;9.95;;;9.02;;
12886;SDS011;6511;49.746;6.094;2022-07-23T14:42:33;9.40;;;8.60;;
12886;SDS011;6511;49.746;6.094;2022-07-23T14:44:59;9.82;;;8.82;;
12886;SDS011;6511;49.746;6.094;2022-07-23T14:47:25;9.75;;;8.10;;
12886;SDS011;6511;49.746;6.094;2022-07-23T14:49:50;7.88;;;7.18;;
12886;SDS011;6511;49.746;6.094;2022-07-23T14:52:16;9.32;;;7.47;;
12886;SDS011;6511;49.746;6.094;2022-07-23T14:54:42;7.30;;;6.07;;
12886;SDS011;6511;49.746;6.094;2022-07-23T14:57:08;7.72;;;6.93;;
12886;SDS011;6511;49.746;6.094;2022-07-23T14:59:34;7.18;;;6.47;;
12886;SDS011;6511;49.746;6.094;2022-07-23T15:04:31;7.82;;;7.03;;
12886;SDS011;6511;49.746;6.094;2022-07-23T15:06:56;7.43;;;6.72;;
12886;SDS011;6511;49.746;6.094;2022-07-23T15:09:22;8.05;;;7.25;;
12886;SDS011;6511;49.746;6.094;2022-07-23T15:11:48;8.10;;;7.30;;
12886;SDS011;6511;49.746;6.094;2022-07-23T15:14:13;8.10;;;7.30;;
12886;SDS011;6511;49.746;6.094;2022-07-23T15:16:39;8.25;;;7.47;;
12886;SDS011;6511;49.746;6.094;2022-07-23T15:19:05;7.78;;;7.00;;
12886;SDS011;6511;49.746;6.094;2022-07-23T15:21:30;7.43;;;6.72;;
12886;SDS011;6511;49.746;6.094;2022-07-23T15:23:57;9.75;;;7.43;;
12886;SDS011;6511;49.746;6.094;2022-07-23T15:26:26;9.27;;;8.43;;
12886;SDS011;6511;49.746;6.094;2022-07-23T15:28:52;7.97;;;6.20;;
12886;SDS011;6511;49.746;6.094;2022-07-23T15:31:18;7.93;;;6.32;;
12886;SDS011;6511;49.746;6.094;2022-07-23T15:33:44;6.82;;;6.22;;
12886;SDS011;6511;49.746;6.094;2022-07-23T15:36:12;7.95;;;6.40;;
12886;SDS011;6511;49.746;6.094;2022-07-23T15:38:38;6.68;;;5.97;;
12886;SDS011;6511;49.746;6.094;2022-07-23T15:41:04;6.25;;;5.70;;
12886;SDS011;6511;49.746;6.094;2022-07-23T15:43:30;6.53;;;5.93;;
12886;SDS011;6511;49.746;6.094;2022-07-23T15:45:56;7.13;;;6.43;;
12886;SDS011;6511;49.746;6.094;2022-07-23T15:48:32;6.85;;;6.15;;
12886;SDS011;6511;49.746;6.094;2022-07-23T15:51:00;6.38;;;5.78;;